createdAt,value
2018-08-08T00:00:32.569Z,38.30
2018-08-08T00:03:02.161Z,39.06
2018-08-08T00:05:31.925Z,39.42
2018-08-08T00:08:01.534Z,39.58
2018-08-08T00:10:31.202Z,39.33
2018-08-08T00:13:00.800Z,39.56
2018-08-08T00:15:30.496Z,39.69
2018-08-08T00:18:00.145Z,39.64
2018-08-08T00:20:29.752Z,39.07
2018-08-08T00:22:59.321Z,39.37
2018-08-08T00:25:28.940Z,39.44
2018-08-08T00:27:58.540Z,40.21
2018-08-08T00:30:28.092Z,40.25
2018-08-08T00:32:57.654Z,40.10
2018-08-08T00:35:27.237Z,39.81
2018-08-08T00:37:56.806Z,40.23
2018-08-08T00:40:26.372Z,40.51
2018-08-08T00:42:56.412Z,40.95
2018-08-08T00:45:26.021Z,40.43
2018-08-08T00:47:55.584Z,41.40
2018-08-08T00:50:25.537Z,41.62
2018-08-08T00:52:55.084Z,41.25
2018-08-08T00:55:24.712Z,41.27
2018-08-08T00:57:54.280Z,41.28
2018-08-08T01:00:23.949Z,42.09
2018-08-08T01:02:53.543Z,42.03
2018-08-08T01:05:23.489Z,42.37
2018-08-08T01:07:53.096Z,41.70
2018-08-08T01:10:22.718Z,42.55
2018-08-08T01:12:52.382Z,42.69
2018-08-08T01:15:21.978Z,42.55
2018-08-08T01:17:51.613Z,42.97
2018-08-08T01:20:21.247Z,42.33
2018-08-08T01:22:51.034Z,42.32
2018-08-08T01:25:20.808Z,42.41
2018-08-08T01:27:50.864Z,42.52
2018-08-08T01:30:21.001Z,43.32
2018-08-08T01:32:50.577Z,43.36
2018-08-08T01:35:20.321Z,43.45
2018-08-08T01:37:49.942Z,42.73
2018-08-08T01:40:19.865Z,43.30
2018-08-08T01:42:49.463Z,43.61
2018-08-08T01:45:19.195Z,42.93
2018-08-08T01:47:48.780Z,42.78
2018-08-08T01:50:18.456Z,42.91
2018-08-08T01:52:48.101Z,43.81
2018-08-08T01:55:24.344Z,42.92
2018-08-08T01:57:54.089Z,43.67
2018-08-08T02:00:23.673Z,43.29
2018-08-08T02:02:53.285Z,43.95
2018-08-08T02:05:22.889Z,43.25
2018-08-08T02:07:52.602Z,44.05
2018-08-08T02:10:23.704Z,43.94
2018-08-08T02:12:53.469Z,44.16
2018-08-08T02:15:23.069Z,43.51
2018-08-08T02:17:53.076Z,44.20
2018-08-08T02:20:22.721Z,44.17
2018-08-08T02:22:52.326Z,43.51
2018-08-08T02:25:22.017Z,43.73
2018-08-08T02:27:51.642Z,44.39
2018-08-08T02:30:23.175Z,43.67
2018-08-08T02:32:53.585Z,43.68
2018-08-08T02:35:23.351Z,43.95
2018-08-08T02:37:53.146Z,44.57
2018-08-08T02:40:22.797Z,44.53
2018-08-08T02:42:52.400Z,44.56
2018-08-08T02:45:22.008Z,44.16
2018-08-08T02:47:51.594Z,44.13
2018-08-08T02:50:22.053Z,43.94
2018-08-08T02:52:51.897Z,44.04
2018-08-08T02:55:21.525Z,44.42
2018-08-08T02:57:51.108Z,44.61
2018-08-08T03:00:21.535Z,44.30
2018-08-08T03:02:51.142Z,44.19
2018-08-08T03:05:20.787Z,44.92
2018-08-08T03:07:50.442Z,45.04
2018-08-08T03:10:20.116Z,44.53
2018-08-08T03:12:49.753Z,44.45
2018-08-08T03:15:20.705Z,44.51
2018-08-08T03:17:50.297Z,45.32
2018-08-08T03:20:19.921Z,44.88
2018-08-08T03:22:49.502Z,44.48
2018-08-08T03:25:19.218Z,44.85
2018-08-08T03:27:48.852Z,44.67
2018-08-08T03:30:21.371Z,45.51
2018-08-08T03:32:51.439Z,45.35
2018-08-08T03:35:21.609Z,44.86
2018-08-08T03:37:51.386Z,45.36
2018-08-08T03:40:21.008Z,45.33
2018-08-08T03:42:50.670Z,45.86
2018-08-08T03:45:20.280Z,45.87
2018-08-08T03:47:49.865Z,45.96
2018-08-08T03:50:19.483Z,45.62
2018-08-08T03:52:49.119Z,45.79
2018-08-08T03:55:18.760Z,45.92
2018-08-08T03:57:48.459Z,45.61
2018-08-08T04:00:21.028Z,46.10
2018-08-08T04:02:51.177Z,45.57
2018-08-08T04:05:20.842Z,45.33
2018-08-08T04:07:50.434Z,45.30
2018-08-08T04:10:20.417Z,46.09
2018-08-08T04:12:50.060Z,45.82
2018-08-08T04:15:20.618Z,46.00
2018-08-08T04:17:50.260Z,46.01
2018-08-08T04:20:19.960Z,46.04
2018-08-08T04:22:49.933Z,45.95
2018-08-08T04:25:19.551Z,45.67
2018-08-08T04:27:49.136Z,45.41
2018-08-08T04:30:20.827Z,45.33
2018-08-08T04:32:50.475Z,45.07
2018-08-08T04:35:20.148Z,44.54
2018-08-08T04:37:49.769Z,43.37
2018-08-08T04:40:20.750Z,42.98
2018-08-08T04:42:51.061Z,42.82
2018-08-08T04:45:20.696Z,42.17
2018-08-08T04:47:50.343Z,41.14
2018-08-08T04:50:20.159Z,41.56
2018-08-08T04:52:49.833Z,41.60
2018-08-08T04:55:19.525Z,40.88
2018-08-08T04:57:49.213Z,39.48
2018-08-08T05:00:19.231Z,38.97
2018-08-08T05:02:48.810Z,39.34
2018-08-08T05:05:18.681Z,39.63
2018-08-08T05:07:48.389Z,39.89
2018-08-08T05:10:17.937Z,39.80
2018-08-08T05:12:47.736Z,38.22
2018-08-08T05:15:18.657Z,37.52
2018-08-08T05:17:49.279Z,35.89
2018-08-08T05:20:19.066Z,34.91
2018-08-08T05:22:49.387Z,33.89
2018-08-08T05:25:19.112Z,34.66
2018-08-08T05:27:48.810Z,34.85
2018-08-08T05:30:20.442Z,34.04
2018-08-08T05:32:50.407Z,34.56
2018-08-08T05:35:20.902Z,34.01
2018-08-08T05:37:50.977Z,33.98
2018-08-08T05:40:23.534Z,33.18
2018-08-08T05:42:54.565Z,32.30
2018-08-08T05:45:25.457Z,31.57
2018-08-08T05:47:56.534Z,31.12
2018-08-08T05:50:26.172Z,30.85
2018-08-08T05:52:55.797Z,30.67
2018-08-08T05:55:25.805Z,30.65
2018-08-08T05:57:55.459Z,29.31
2018-08-08T06:00:28.703Z,29.18
2018-08-08T06:02:58.581Z,28.40
2018-08-08T06:05:28.334Z,28.22
2018-08-08T06:07:57.985Z,27.49
2018-08-08T06:10:27.649Z,26.77
2018-08-08T06:12:57.334Z,25.76
2018-08-08T06:15:27.081Z,24.83
2018-08-08T06:17:56.713Z,24.65
2018-08-08T06:20:26.384Z,24.90
2018-08-08T06:22:55.997Z,23.88
2018-08-08T06:25:25.669Z,23.90
2018-08-08T06:27:55.329Z,22.98
2018-08-08T06:30:27.224Z,22.87
2018-08-08T06:32:57.842Z,22.99
2018-08-08T06:35:28.847Z,21.93
2018-08-08T06:37:58.957Z,22.37
2018-08-08T06:40:28.595Z,22.82
2018-08-08T06:42:58.288Z,23.00
2018-08-08T06:45:28.229Z,22.36
2018-08-08T06:47:57.870Z,22.76
2018-08-08T06:50:27.841Z,23.32
2018-08-08T06:52:57.493Z,22.71
2018-08-08T06:55:27.145Z,22.75
2018-08-08T06:57:56.797Z,22.54
2018-08-08T07:00:29.015Z,22.34
2018-08-08T07:02:59.040Z,21.94
2018-08-08T07:05:28.634Z,21.48
2018-08-08T07:07:58.609Z,21.17
2018-08-08T07:10:28.319Z,20.94
2018-08-08T07:12:57.936Z,20.82
2018-08-08T07:15:27.524Z,20.72
2018-08-08T07:17:57.557Z,20.32
2018-08-08T07:20:27.192Z,20.53
2018-08-08T07:22:56.944Z,19.83
2018-08-08T07:25:26.947Z,19.48
2018-08-08T07:27:56.542Z,19.00
2018-08-08T07:30:26.205Z,18.80
2018-08-08T07:32:55.820Z,18.74
2018-08-08T07:35:25.414Z,18.66
2018-08-08T07:37:55.129Z,18.72
2018-08-08T07:40:25.108Z,18.87
2018-08-08T07:42:54.765Z,19.09
2018-08-08T07:45:26.925Z,18.41
2018-08-08T07:47:56.646Z,18.20
2018-08-08T07:50:26.441Z,18.17
2018-08-08T07:52:56.157Z,17.69
2018-08-08T07:55:25.841Z,17.93
2018-08-08T07:57:55.578Z,17.91
2018-08-08T08:00:29.605Z,17.28
2018-08-08T08:03:00.557Z,17.21
2018-08-08T08:05:30.241Z,17.24
2018-08-08T08:07:59.977Z,16.93
2018-08-08T08:10:29.697Z,16.99
2018-08-08T08:12:59.477Z,17.35
2018-08-08T08:15:29.166Z,16.83
2018-08-08T08:17:58.890Z,16.77
2018-08-08T08:20:28.868Z,16.54
2018-08-08T08:22:58.510Z,15.95
2018-08-08T08:25:28.225Z,16.30
2018-08-08T08:27:57.872Z,16.15
2018-08-08T08:30:27.549Z,16.28
2018-08-08T08:32:57.349Z,16.21
2018-08-08T08:35:27.329Z,15.92
2018-08-08T08:37:57.087Z,15.13
2018-08-08T08:40:26.697Z,15.43
2018-08-08T08:42:56.554Z,15.46
2018-08-08T08:45:26.298Z,14.76
2018-08-08T08:47:56.017Z,15.00
2018-08-08T08:50:25.872Z,15.98
2018-08-08T08:52:55.461Z,15.96
2018-08-08T08:55:25.257Z,15.81
2018-08-08T08:57:54.957Z,15.02
2018-08-08T09:00:24.646Z,14.55
2018-08-08T09:02:54.389Z,14.54
2018-08-08T09:05:24.107Z,14.93
2018-08-08T09:07:53.770Z,14.77
2018-08-08T09:10:23.544Z,14.75
2018-08-08T09:12:53.230Z,15.16
2018-08-08T09:15:23.106Z,15.47
2018-08-08T09:17:52.774Z,15.25
2018-08-08T09:20:22.482Z,15.41
2018-08-08T09:22:52.202Z,14.71
2018-08-08T09:25:21.946Z,14.60
2018-08-08T09:27:51.593Z,14.97
2018-08-08T09:30:21.361Z,15.23
2018-08-08T09:32:50.999Z,15.67
2018-08-08T09:35:20.630Z,16.01
2018-08-08T09:37:50.295Z,16.11
2018-08-08T09:40:19.980Z,16.29
2018-08-08T09:42:49.671Z,16.75
2018-08-08T09:45:19.378Z,16.91
2018-08-08T09:47:49.137Z,16.85
2018-08-08T09:50:18.941Z,16.66
2018-08-08T09:52:48.614Z,16.62
2018-08-08T09:55:18.281Z,16.27
2018-08-08T09:57:47.905Z,16.23
2018-08-08T10:00:22.554Z,16.50
2018-08-08T10:03:57.374Z,16.78
2018-08-08T10:06:26.978Z,16.59
2018-08-08T10:08:56.634Z,16.41
2018-08-08T10:11:26.237Z,16.29
2018-08-08T10:13:55.867Z,16.63
2018-08-08T10:16:25.613Z,15.98
2018-08-08T10:18:55.337Z,15.95
2018-08-08T10:21:24.971Z,15.79
2018-08-08T10:23:54.630Z,16.00
2018-08-08T10:26:24.613Z,15.10
2018-08-08T10:28:54.256Z,15.88
2018-08-08T10:31:23.891Z,15.40
2018-08-08T10:33:54.011Z,15.34
2018-08-08T10:36:23.762Z,15.49
2018-08-08T10:38:53.456Z,15.46
2018-08-08T10:41:23.137Z,14.74
2018-08-08T10:43:52.757Z,15.14
2018-08-08T10:46:22.441Z,15.85
2018-08-08T10:48:52.400Z,16.53
2018-08-08T10:51:22.057Z,17.00
2018-08-08T10:53:51.802Z,16.99
2018-08-08T10:56:21.544Z,17.13
2018-08-08T10:58:51.394Z,16.98
2018-08-08T11:01:21.049Z,16.83
2018-08-08T11:03:50.774Z,16.72
2018-08-08T11:06:20.461Z,16.98
2018-08-08T11:08:50.145Z,17.30
2018-08-08T11:11:19.817Z,17.71
2018-08-08T11:13:49.478Z,17.62
2018-08-08T11:16:19.176Z,18.19
2018-08-08T11:18:48.938Z,18.72
2018-08-08T11:21:18.576Z,18.94
2018-08-08T11:23:48.218Z,19.34
2018-08-08T11:26:17.903Z,19.26
2018-08-08T11:28:47.543Z,19.54
2018-08-08T11:31:17.232Z,19.97
2018-08-08T11:33:47.174Z,19.94
2018-08-08T11:36:16.791Z,20.21
2018-08-08T11:38:46.526Z,20.30
2018-08-08T11:41:16.122Z,20.50
2018-08-08T11:43:45.786Z,20.46
2018-08-08T11:46:15.417Z,20.47
2018-08-08T11:48:45.018Z,20.87
2018-08-08T11:51:15.034Z,20.93
2018-08-08T11:53:44.805Z,20.76
2018-08-08T11:56:14.545Z,21.50
2018-08-08T11:58:44.197Z,21.40
2018-08-08T12:01:13.862Z,21.65
2018-08-08T12:03:43.455Z,21.52
2018-08-08T12:06:13.163Z,21.82
2018-08-08T12:08:43.318Z,21.87
2018-08-08T12:11:12.929Z,22.14
2018-08-08T12:13:42.565Z,22.44
2018-08-08T12:16:12.245Z,22.64
2018-08-08T12:18:41.920Z,22.71
2018-08-08T12:21:11.623Z,22.81
2018-08-08T12:23:41.462Z,22.65
2018-08-08T12:26:11.085Z,22.75
2018-08-08T12:28:40.827Z,23.31
2018-08-08T12:31:10.506Z,22.82
2018-08-08T12:33:40.162Z,23.09
2018-08-08T12:36:11.032Z,23.74
2018-08-08T12:38:40.610Z,23.89
2018-08-08T12:41:10.252Z,23.82
2018-08-08T12:43:39.905Z,23.31
2018-08-08T12:46:09.583Z,23.94
2018-08-08T12:48:39.193Z,23.35
2018-08-08T12:51:09.445Z,23.81
2018-08-08T12:53:39.037Z,23.26
2018-08-08T12:56:08.706Z,23.11
2018-08-08T12:58:44.884Z,23.40
2018-08-08T13:01:14.516Z,22.81
2018-08-08T13:03:44.210Z,23.19
2018-08-08T13:06:13.844Z,23.39
2018-08-08T13:08:43.483Z,22.50
2018-08-08T13:11:13.115Z,22.88
2018-08-08T13:13:42.816Z,22.56
2018-08-08T13:16:12.461Z,22.74
2018-08-08T13:18:42.072Z,22.52
2018-08-08T13:21:11.725Z,22.32
2018-08-08T13:23:41.450Z,22.74
2018-08-08T13:26:11.448Z,22.21
2018-08-08T13:28:41.270Z,22.07
2018-08-08T13:31:12.554Z,22.27
2018-08-08T13:33:42.547Z,22.15
2018-08-08T13:36:12.119Z,22.17
2018-08-08T13:38:41.726Z,21.99
2018-08-08T13:41:11.440Z,21.95
2018-08-08T13:43:41.130Z,22.29
2018-08-08T13:46:10.813Z,22.83
2018-08-08T13:48:40.517Z,21.92
2018-08-08T13:51:10.264Z,22.67
2018-08-08T13:53:40.067Z,22.87
2018-08-08T13:56:09.735Z,22.22
2018-08-08T13:58:39.482Z,22.53
2018-08-08T14:01:09.176Z,21.98
2018-08-08T14:03:38.940Z,21.86
2018-08-08T14:06:08.482Z,21.59
2018-08-08T14:08:38.118Z,21.38
2018-08-08T14:11:07.799Z,21.79
2018-08-08T14:13:37.435Z,21.84
2018-08-08T14:16:07.347Z,21.71
2018-08-08T14:18:37.306Z,22.01
2018-08-08T14:21:06.944Z,21.87
2018-08-08T14:23:36.579Z,21.82
2018-08-08T14:26:06.709Z,21.41
2018-08-08T14:28:36.323Z,21.28
2018-08-08T14:31:05.934Z,21.39
2018-08-08T14:33:35.632Z,20.86
2018-08-08T14:36:05.302Z,21.41
2018-08-08T14:38:34.965Z,21.30
2018-08-08T14:41:04.755Z,20.37
2018-08-08T14:43:34.340Z,20.72
2018-08-08T14:46:03.968Z,20.30
2018-08-08T14:48:33.678Z,20.47
2018-08-08T14:51:03.916Z,20.65
2018-08-08T14:53:34.330Z,20.18
2018-08-08T14:56:04.964Z,20.41
2018-08-08T14:58:34.596Z,20.41
2018-08-08T15:01:04.282Z,20.70
2018-08-08T15:03:34.063Z,21.73
2018-08-08T15:06:03.855Z,22.12
2018-08-08T15:08:33.816Z,22.53
2018-08-08T15:11:03.443Z,23.11
2018-08-08T15:13:33.164Z,23.78
2018-08-08T15:16:02.803Z,24.55
2018-08-08T15:18:32.454Z,24.37
2018-08-08T15:21:02.125Z,25.31
2018-08-08T15:23:31.894Z,25.62
2018-08-08T15:26:01.588Z,25.44
2018-08-08T15:28:31.309Z,25.31
2018-08-08T15:31:01.019Z,25.79
2018-08-08T15:33:30.719Z,25.70
2018-08-08T15:36:00.514Z,26.15
2018-08-08T15:38:30.251Z,26.42
2018-08-08T15:40:59.933Z,26.92
2018-08-08T15:43:29.702Z,26.37
2018-08-08T15:45:59.378Z,27.53
2018-08-08T15:48:29.080Z,26.94
2018-08-08T15:50:58.772Z,28.38
2018-08-08T15:53:29.638Z,28.56
2018-08-08T15:55:59.318Z,28.48
2018-08-08T15:58:28.942Z,29.76
2018-08-08T16:00:58.942Z,30.05
2018-08-08T16:03:28.653Z,30.40
2018-08-08T16:05:58.273Z,30.65
2018-08-08T16:08:27.953Z,30.63
2018-08-08T16:10:57.605Z,31.20
2018-08-08T16:13:27.401Z,31.27
2018-08-08T16:15:57.109Z,31.75
2018-08-08T16:18:26.882Z,31.24
2018-08-08T16:20:57.016Z,31.90
2018-08-08T16:23:26.658Z,32.52
2018-08-08T16:25:56.385Z,31.72
2018-08-08T16:28:26.042Z,32.51
2018-08-08T16:30:55.789Z,32.80
2018-08-08T16:33:25.488Z,32.52
2018-08-08T16:35:55.223Z,32.55
2018-08-08T16:38:25.417Z,32.18
2018-08-08T16:40:55.082Z,33.21
2018-08-08T16:43:24.763Z,33.18
2018-08-08T16:45:54.550Z,33.23
2018-08-08T16:48:24.167Z,33.45
2018-08-08T16:50:53.786Z,33.12
2018-08-08T16:53:23.462Z,33.15
2018-08-08T16:55:53.078Z,33.43
2018-08-08T16:58:22.709Z,33.43
2018-08-08T17:00:52.494Z,34.11
2018-08-08T17:03:22.124Z,33.40
2018-08-08T17:05:51.715Z,34.25
2018-08-08T17:08:21.342Z,33.72
2018-08-08T17:10:50.960Z,34.72
2018-08-08T17:13:20.593Z,33.81
2018-08-08T17:15:50.257Z,34.28
2018-08-08T17:18:19.885Z,34.52
2018-08-08T17:20:49.529Z,35.35
2018-08-08T17:23:19.193Z,35.18
2018-08-08T17:25:48.921Z,35.53
2018-08-08T17:28:18.733Z,35.69
2018-08-08T17:30:48.557Z,35.52
2018-08-08T17:33:18.227Z,36.01
2018-08-08T17:35:47.861Z,35.32
2018-08-08T17:38:17.575Z,35.25
2018-08-08T17:40:47.301Z,36.41
2018-08-08T17:43:17.266Z,36.76
2018-08-08T17:45:46.789Z,36.03
2018-08-08T17:48:16.426Z,36.93
2018-08-08T17:50:46.126Z,37.17
2018-08-08T17:53:16.110Z,36.86
2018-08-08T17:55:45.778Z,37.57
2018-08-08T17:58:15.460Z,38.09
2018-08-08T18:00:45.248Z,38.47
2018-08-08T18:03:14.864Z,38.08
2018-08-08T18:05:44.552Z,38.33
2018-08-08T18:08:20.126Z,39.21
2018-08-08T18:10:51.082Z,39.67
2018-08-08T18:13:20.785Z,39.21
2018-08-08T18:15:50.863Z,39.84
2018-08-08T18:18:20.542Z,40.09
2018-08-08T18:20:50.228Z,40.74
2018-08-08T18:23:20.212Z,39.85
2018-08-08T18:25:49.800Z,40.58
2018-08-08T18:28:19.471Z,40.11
2018-08-08T18:30:49.136Z,40.54
2018-08-08T18:33:18.721Z,40.97
2018-08-08T18:35:48.387Z,41.20
2018-08-08T18:38:18.267Z,40.11
2018-08-08T18:40:48.174Z,40.43
2018-08-08T18:43:17.813Z,40.87
2018-08-08T18:45:47.489Z,40.94
2018-08-08T18:48:17.117Z,40.16
2018-08-08T18:50:46.852Z,40.80
2018-08-08T18:53:16.617Z,40.83
2018-08-08T18:55:46.319Z,40.79
2018-08-08T18:58:15.978Z,41.00
2018-08-08T19:00:45.761Z,41.28
2018-08-08T19:03:15.385Z,41.11
2018-08-08T19:05:45.096Z,40.82
2018-08-08T19:08:15.081Z,41.59
2018-08-08T19:10:44.736Z,42.03
2018-08-08T19:13:14.467Z,40.98
2018-08-08T19:15:44.142Z,42.01
2018-08-08T19:18:13.987Z,41.88
2018-08-08T19:20:43.631Z,42.73
2018-08-08T19:23:13.302Z,44.45
2018-08-08T19:25:43.104Z,45.63
2018-08-08T19:28:12.798Z,45.41
2018-08-08T19:30:42.801Z,45.39
2018-08-08T19:33:12.510Z,46.51
2018-08-08T19:35:42.800Z,48.35
2018-08-08T19:38:12.513Z,48.76
2018-08-08T19:40:42.122Z,50.39
2018-08-08T19:43:11.856Z,51.27
2018-08-08T19:45:41.518Z,51.31
2018-08-08T19:48:11.121Z,52.53
2018-08-08T19:50:57.320Z,52.57
2018-08-08T19:53:27.891Z,53.18
2018-08-08T19:55:57.507Z,54.07
2018-08-08T19:58:27.142Z,53.87
2018-08-08T20:00:56.807Z,54.13
2018-08-08T20:03:26.388Z,55.31
2018-08-08T20:05:56.335Z,55.48
2018-08-08T20:08:26.756Z,55.59
2018-08-08T20:10:57.330Z,56.06
2018-08-08T20:13:27.157Z,55.66
2018-08-08T20:15:58.295Z,56.14
2018-08-08T20:18:27.937Z,56.12
2018-08-08T20:20:58.095Z,57.16
2018-08-08T20:23:27.668Z,56.79
2018-08-08T20:25:57.307Z,56.99
2018-08-08T20:28:26.890Z,57.20
2018-08-08T20:30:56.838Z,57.28
2018-08-08T20:33:26.474Z,57.57
2018-08-08T20:35:56.104Z,58.18
2018-08-08T20:38:25.771Z,59.17
2018-08-08T20:40:55.425Z,59.92
2018-08-08T20:43:25.027Z,59.19
2018-08-08T20:45:54.911Z,59.79
2018-08-08T20:48:24.558Z,59.10
2018-08-08T20:50:54.206Z,59.50
2018-08-08T20:53:23.849Z,58.63
2018-08-08T20:55:53.445Z,58.46
2018-08-08T20:58:23.051Z,58.78
2018-08-08T21:00:52.667Z,58.69
2018-08-08T21:03:22.259Z,59.34
2018-08-08T21:05:51.897Z,58.75
2018-08-08T21:08:21.533Z,58.80
2018-08-08T21:10:51.159Z,58.79
2018-08-08T21:13:20.762Z,58.61
2018-08-08T21:15:50.392Z,58.71
2018-08-08T21:18:20.268Z,58.41
2018-08-08T21:20:49.948Z,59.08
2018-08-08T21:23:19.537Z,57.86
2018-08-08T21:25:49.145Z,58.57
2018-08-08T21:28:18.793Z,57.53
2018-08-08T21:30:48.437Z,57.51
2018-08-08T21:33:18.057Z,57.55
2018-08-08T21:35:47.818Z,58.10
2018-08-08T21:38:17.507Z,56.75
2018-08-08T21:40:47.085Z,56.83
2018-08-08T21:43:16.778Z,56.45
2018-08-08T21:45:46.461Z,55.68
2018-08-08T21:48:16.067Z,55.14
2018-08-08T21:50:45.649Z,53.72
2018-08-08T21:53:17.841Z,53.26
2018-08-08T21:56:04.446Z,52.67
2018-08-08T21:58:50.989Z,51.91
2018-08-08T22:01:37.434Z,51.96
2018-08-08T22:04:24.083Z,50.92
2018-08-08T22:07:10.660Z,50.92
2018-08-08T22:11:53.565Z,50.30
2018-08-08T22:14:40.206Z,49.79
2018-08-08T22:17:26.509Z,49.41
2018-08-08T22:19:56.176Z,49.32
2018-08-08T22:22:25.791Z,49.85
2018-08-08T22:24:55.443Z,49.79
2018-08-08T22:27:25.042Z,48.88
2018-08-08T22:29:54.635Z,49.71
2018-08-08T22:32:24.292Z,49.52
2018-08-08T22:34:53.998Z,48.74
2018-08-08T22:37:23.570Z,49.68
2018-08-08T22:39:53.269Z,48.76
2018-08-08T22:42:22.842Z,49.26
2018-08-08T22:44:52.654Z,49.05
2018-08-08T22:47:22.396Z,49.93
2018-08-08T22:49:51.987Z,50.07
2018-08-08T22:52:21.574Z,50.29
2018-08-08T22:54:51.250Z,50.48
2018-08-08T22:57:20.827Z,50.66
2018-08-08T22:59:50.404Z,49.95
2018-08-08T23:02:20.045Z,50.25
2018-08-08T23:04:49.601Z,51.01
2018-08-08T23:07:19.238Z,50.38
2018-08-08T23:09:48.828Z,51.12
2018-08-08T23:12:18.474Z,51.49
2018-08-08T23:14:48.049Z,51.33
2018-08-08T23:17:17.649Z,51.59
2018-08-08T23:19:47.310Z,50.96
2018-08-08T23:22:33.936Z,51.78
2018-08-08T23:25:03.565Z,52.03
2018-08-08T23:27:33.270Z,51.34
2018-08-08T23:30:02.955Z,51.52
2018-08-08T23:32:32.562Z,51.66
2018-08-08T23:35:02.167Z,52.23
2018-08-08T23:37:31.776Z,52.60
2018-08-08T23:40:01.390Z,52.69
2018-08-08T23:42:31.000Z,52.83
2018-08-08T23:45:00.664Z,53.51
2018-08-08T23:47:30.241Z,52.81
2018-08-08T23:49:59.931Z,53.51
2018-08-08T23:52:29.825Z,53.03
2018-08-08T23:54:59.424Z,53.81
2018-08-08T23:57:29.001Z,53.69
2018-08-08T23:59:58.605Z,53.50
